Terminal Aerodrome Forecast
Issued by NWS

Home | Current Version | Previous Version | Text Only | Print | Product List | Glossary On
Versions: 1 2 3 4 5 6 7 8 9 10 11 12 13 14
000
FTUS43 KJKL 210500
TAFSME
TAF
KSME 210523Z 2106/2206 00000KT P6SM SKC
     FM210900 VRB02KT 3SM BR FEW250
     FM211200 VRB06KT P6SM FEW030 FEW250=

USA.gov is the U.S. government's official web portal to all federal, state and local government web resources and services.